Time;durP1;ratioP1;P1;durP2;ratioP2;P2;SDS_P1;SDS_P2;PMS_P1;PMS_P2;Temp;Humidity;BMP_temperature;BMP_pressure;BME280_temperature;BME280_humidity;BME280_pressure;Samples;Min_cycle;Max_cycle;Signal;HPM_P1;HPM_P2
2024/01/02 00:00:37;;;;;;;48.53;27.20;;;8.00;99.90;;;;;;5103869;28;20283;-79
2024/01/02 00:03:04;;;;;;;50.53;27.40;;;7.90;99.90;;;;;;5087579;28;20212;-81
2024/01/02 00:05:32;;;;;;;46.27;25.87;;;7.90;99.90;;;;;;5089439;28;20200;-79
2024/01/02 00:07:59;;;;;;;56.73;26.60;;;7.90;99.90;;;;;;5099624;28;20220;-79
2024/01/02 00:10:27;;;;;;;52.60;28.33;;;7.90;99.90;;;;;;5102550;28;20198;-79
2024/01/02 00:12:58;;;;;;;54.90;26.37;;;7.90;99.90;;;;;;5084593;28;20205;-80
2024/01/02 00:16:01;;;;;;;48.63;25.70;;;7.90;99.90;;;;;;5097350;28;20201;-78
2024/01/02 00:18:28;;;;;;;55.43;27.83;;;7.90;99.90;;;;;;5073069;28;20216;-81
2024/01/02 00:20:56;;;;;;;52.30;28.13;;;7.90;99.90;;;;;;5069916;28;20209;-81
2024/01/02 00:23:23;;;;;;;50.03;28.37;;;7.90;99.90;;;;;;5090638;28;20263;-80
2024/01/02 00:25:50;;;;;;;52.10;27.80;;;7.80;99.90;;;;;;5075361;28;20521;-80
2024/01/02 00:28:18;;;;;;;55.10;28.93;;;7.90;99.90;;;;;;5087554;28;20268;-80
2024/01/02 00:30:45;;;;;;;52.37;27.60;;;7.80;99.90;;;;;;5074558;28;21033;-81
2024/01/02 00:33:12;;;;;;;54.73;27.10;;;7.80;99.90;;;;;;5082021;28;20656;-80
2024/01/02 00:35:41;;;;;;;58.40;29.17;;;7.80;99.90;;;;;;5070521;28;20580;-80
2024/01/02 00:38:09;;;;;;;57.53;28.47;;;7.80;99.90;;;;;;5073866;28;20590;-80
2024/01/02 00:40:37;;;;;;;58.13;29.00;;;7.80;99.90;;;;;;5078714;28;20222;-80
2024/01/02 00:43:04;;;;;;;50.63;27.73;;;7.80;99.90;;;;;;5092554;28;20207;-80
2024/01/02 00:45:31;;;;;;;45.63;26.07;;;7.80;99.90;;;;;;5087539;28;20247;-79
2024/01/02 00:47:59;;;;;;;52.93;25.90;;;7.80;99.90;;;;;;5091716;28;20652;-80
2024/01/02 00:50:26;;;;;;;48.73;26.97;;;7.80;99.90;;;;;;5099630;28;20216;-79
2024/01/02 00:52:55;;;;;;;55.47;29.17;;;7.80;99.90;;;;;;5082798;28;20204;-80
2024/01/02 00:55:22;;;;;;;50.53;27.07;;;7.80;99.90;;;;;;5091005;28;20192;-80
2024/01/02 00:57:49;;;;;;;50.10;26.40;;;7.70;99.90;;;;;;5081319;28;20661;-81
2024/01/02 01:00:17;;;;;;;46.70;27.00;;;7.80;99.90;;;;;;5069253;28;20633;-80
2024/01/02 01:02:44;;;;;;;53.83;27.90;;;7.80;99.90;;;;;;5084782;28;20292;-79
2024/01/02 01:05:12;;;;;;;47.97;26.87;;;7.80;99.90;;;;;;5093872;28;20266;-80
2024/01/02 01:07:39;;;;;;;59.27;27.97;;;7.70;99.90;;;;;;5090463;28;20194;-80
2024/01/02 01:10:06;;;;;;;50.33;25.90;;;7.70;99.90;;;;;;5070650;28;20228;-80
2024/01/02 01:12:33;;;;;;;45.97;25.00;;;7.70;99.90;;;;;;5097327;28;20228;-80
2024/01/02 01:15:00;;;;;;;65.17;28.47;;;7.70;99.90;;;;;;5096619;28;20220;-81
2024/01/02 01:17:29;;;;;;;54.50;27.57;;;7.70;99.90;;;;;;5098695;28;20185;-79
2024/01/02 01:19:56;;;;;;;57.53;28.67;;;7.70;99.90;;;;;;5080569;28;20196;-80
2024/01/02 01:22:24;;;;;;;55.43;27.03;;;7.70;99.90;;;;;;5109267;27;20215;-81
2024/01/02 01:24:53;;;;;;;51.87;27.67;;;7.70;99.90;;;;;;5086601;28;20617;-77
2024/01/02 01:27:23;;;;;;;49.40;25.40;;;7.70;99.90;;;;;;5081533;28;20267;-79
2024/01/02 01:29:50;;;;;;;45.93;25.70;;;7.60;99.90;;;;;;5113035;28;20596;-80
2024/01/02 01:32:18;;;;;;;46.60;24.20;;;7.60;99.90;;;;;;5091347;28;20205;-81
2024/01/02 01:34:46;;;;;;;47.47;25.03;;;7.60;99.90;;;;;;5086547;28;20202;-79
2024/01/02 01:37:13;;;;;;;46.73;24.40;;;7.50;99.90;;;;;;5102856;28;20640;-80
2024/01/02 01:39:40;;;;;;;48.73;26.00;;;7.50;99.90;;;;;;5084912;28;20212;-81
2024/01/02 01:42:08;;;;;;;42.67;23.73;;;7.40;99.90;;;;;;5108371;28;20196;-80
2024/01/02 01:44:35;;;;;;;45.60;24.77;;;7.30;99.90;;;;;;5085670;28;20240;-80
2024/01/02 01:47:04;;;;;;;44.57;23.80;;;7.30;99.90;;;;;;5093618;28;20217;-80
2024/01/02 01:49:32;;;;;;;41.87;22.70;;;7.30;99.90;;;;;;5087296;28;20209;-80
2024/01/02 01:52:01;;;;;;;45.57;23.87;;;7.30;99.90;;;;;;5092534;28;20270;-81
2024/01/02 01:54:28;;;;;;;45.33;24.67;;;7.30;99.90;;;;;;5074736;28;20257;-80
2024/01/02 01:56:55;;;;;;;43.33;23.63;;;7.20;99.90;;;;;;5078723;28;20212;-81
2024/01/02 01:59:24;;;;;;;44.57;23.57;;;7.20;99.90;;;;;;5085647;28;20197;-80
2024/01/02 02:01:52;;;;;;;41.77;23.23;;;7.20;99.90;;;;;;5092538;28;20304;-80
2024/01/02 02:04:21;;;;;;;49.97;21.60;;;7.20;99.90;;;;;;5077004;28;20216;-80
2024/01/02 02:06:48;;;;;;;44.57;23.50;;;7.20;99.90;;;;;;5096769;28;20637;-81
2024/01/02 02:09:15;;;;;;;35.10;21.43;;;7.20;99.90;;;;;;5084127;28;20212;-80
2024/01/02 02:11:44;;;;;;;36.90;21.43;;;7.20;99.90;;;;;;5103490;28;20207;-79
2024/01/02 02:14:11;;;;;;;36.73;21.47;;;7.20;99.90;;;;;;5084201;28;20239;-80
2024/01/02 02:16:44;;;;;;;36.57;22.17;;;7.20;99.90;;;;;;5084730;28;20282;-79
2024/01/02 02:19:19;;;;;;;46.07;22.67;;;7.20;99.90;;;;;;5072235;28;20209;-80
2024/01/02 02:21:48;;;;;;;38.10;22.37;;;7.30;99.90;;;;;;5081379;28;20292;-79
2024/01/02 02:24:15;;;;;;;35.93;21.47;;;7.20;99.90;;;;;;5082308;28;20258;-79
2024/01/02 02:26:42;;;;;;;34.37;20.93;;;7.20;99.90;;;;;;5074219;28;20270;-80
2024/01/02 02:29:09;;;;;;;36.73;22.10;;;7.20;99.90;;;;;;5105219;28;20214;-79
2024/01/02 02:31:36;;;;;;;39.70;20.53;;;7.20;99.90;;;;;;5087634;28;20229;-81
2024/01/02 02:34:04;;;;;;;35.90;19.17;;;7.30;99.90;;;;;;5067258;28;20254;-79
2024/01/02 02:36:31;;;;;;;35.47;20.63;;;7.20;99.90;;;;;;5086019;28;20196;-80
2024/01/02 02:38:58;;;;;;;35.10;19.33;;;7.20;99.90;;;;;;5091763;28;20205;-78
2024/01/02 02:41:29;;;;;;;30.50;19.70;;;7.20;99.90;;;;;;5102217;28;20580;-81
2024/01/02 02:43:56;;;;;;;33.57;20.20;;;7.20;99.90;;;;;;5076930;28;20258;-80
2024/01/02 02:46:23;;;;;;;38.57;20.97;;;7.10;99.90;;;;;;5089964;28;20602;-81
2024/01/02 02:48:55;;;;;;;38.70;21.17;;;7.10;99.90;;;;;;5095635;28;20691;-77
2024/01/02 02:51:22;;;;;;;36.17;21.07;;;7.10;99.90;;;;;;5096024;28;20197;-81
2024/01/02 02:53:49;;;;;;;38.30;20.53;;;7.10;99.90;;;;;;5088026;28;20200;-77
2024/01/02 02:56:16;;;;;;;41.40;21.57;;;7.10;99.90;;;;;;5097048;28;20197;-79
2024/01/02 02:58:44;;;;;;;36.73;21.93;;;7.10;99.90;;;;;;5096100;28;20534;-79
2024/01/02 03:01:23;;;;;;;35.77;20.97;;;7.10;99.90;;;;;;5082566;28;20198;-80
2024/01/02 03:03:50;;;;;;;35.07;21.20;;;7.10;99.90;;;;;;5107979;28;20279;-81
2024/01/02 03:06:19;;;;;;;41.03;22.80;;;7.10;99.90;;;;;;5087410;28;20200;-81
2024/01/02 03:08:55;;;;;;;39.30;22.10;;;7.10;99.90;;;;;;5089253;28;20283;-77
2024/01/02 03:11:22;;;;;;;37.10;21.43;;;7.10;99.90;;;;;;5102251;28;20208;-77
2024/01/02 03:13:50;;;;;;;34.60;21.53;;;7.10;99.90;;;;;;5091741;28;20207;-81
2024/01/02 03:16:19;;;;;;;40.33;21.77;;;7.10;99.90;;;;;;5114644;28;20210;-80
2024/01/02 03:18:46;;;;;;;38.83;21.63;;;7.10;99.90;;;;;;5088064;28;20205;-80
2024/01/02 03:21:13;;;;;;;40.20;22.67;;;7.10;99.90;;;;;;5079324;28;20251;-81
2024/01/02 03:23:41;;;;;;;36.27;21.67;;;7.10;99.90;;;;;;5092644;28;20652;-80
2024/01/02 03:26:14;;;;;;;39.70;21.93;;;7.10;99.90;;;;;;5096334;28;20206;-81
2024/01/02 03:28:41;;;;;;;40.80;21.33;;;7.20;99.90;;;;;;5082742;28;20198;-80
2024/01/02 03:31:08;;;;;;;39.10;21.57;;;7.20;99.90;;;;;;5112595;28;20220;-81
2024/01/02 03:33:35;;;;;;;42.90;21.37;;;7.10;99.90;;;;;;5110634;28;20196;-81
2024/01/02 03:36:03;;;;;;;39.30;21.13;;;7.20;99.90;;;;;;5104960;28;20524;-80
2024/01/02 03:38:31;;;;;;;41.80;23.03;;;7.20;99.90;;;;;;5095631;28;20516;-80
2024/01/02 03:40:58;;;;;;;39.87;21.40;;;7.20;99.90;;;;;;5099906;28;20193;-80
2024/01/02 03:43:26;;;;;;;37.57;21.13;;;7.10;99.90;;;;;;5091531;28;20196;-80
2024/01/02 03:45:53;;;;;;;33.20;19.87;;;7.20;99.90;;;;;;5107345;28;20250;-81
2024/01/02 03:48:23;;;;;;;32.50;19.90;;;7.20;99.90;;;;;;5085984;28;20261;-82
2024/01/02 03:50:50;;;;;;;31.73;19.10;;;7.20;99.90;;;;;;5109468;28;20579;-80
2024/01/02 03:53:17;;;;;;;36.07;19.67;;;7.10;99.90;;;;;;5092754;28;20200;-80
2024/01/02 03:55:46;;;;;;;36.97;19.80;;;7.10;99.90;;;;;;5095909;28;20204;-81
2024/01/02 03:58:13;;;;;;;35.60;20.00;;;7.10;99.90;;;;;;5098471;28;20241;-81
2024/01/02 04:00:40;;;;;;;32.67;19.33;;;7.10;99.90;;;;;;5089397;28;20205;-80
2024/01/02 04:03:08;;;;;;;40.40;21.00;;;7.10;99.90;;;;;;5069867;28;20227;-80
2024/01/02 04:05:35;;;;;;;34.27;19.63;;;7.10;99.90;;;;;;5103001;28;20239;-80
2024/01/02 04:08:02;;;;;;;32.93;19.73;;;7.10;99.90;;;;;;5086048;28;20207;-81
2024/01/02 04:10:30;;;;;;;32.40;19.43;;;7.10;99.90;;;;;;5108468;28;20220;-81
2024/01/02 04:12:57;;;;;;;37.23;20.63;;;7.10;99.90;;;;;;5100207;28;20586;-79
2024/01/02 04:15:24;;;;;;;40.90;20.30;;;7.10;99.90;;;;;;5089073;28;20216;-80
2024/01/02 04:17:51;;;;;;;31.37;18.97;;;7.00;99.90;;;;;;5084418;28;20196;-80
2024/01/02 04:20:18;;;;;;;32.73;18.77;;;7.00;99.90;;;;;;5072266;28;20188;-81
2024/01/02 04:22:46;;;;;;;31.23;17.70;;;7.00;99.90;;;;;;5093605;28;20291;-80
2024/01/02 04:25:13;;;;;;;31.77;17.53;;;7.00;99.90;;;;;;5092584;28;20198;-80
2024/01/02 04:27:40;;;;;;;34.80;18.63;;;7.00;99.90;;;;;;5087435;28;20212;-80
2024/01/02 04:30:08;;;;;;;42.27;18.57;;;7.00;99.90;;;;;;5079343;28;20210;-80
2024/01/02 04:32:35;;;;;;;34.83;18.53;;;7.00;99.90;;;;;;5080172;28;20227;-81
2024/01/02 04:35:03;;;;;;;35.53;19.27;;;7.00;99.90;;;;;;5083389;28;20229;-80
2024/01/02 04:37:30;;;;;;;32.23;18.70;;;7.00;99.90;;;;;;5083780;28;20209;-80
2024/01/02 04:39:57;;;;;;;32.67;19.63;;;7.00;99.90;;;;;;5082583;28;20570;-80
2024/01/02 04:42:24;;;;;;;35.13;19.97;;;7.00;99.90;;;;;;5098688;28;20276;-80
2024/01/02 04:44:51;;;;;;;39.90;19.30;;;6.90;99.90;;;;;;5088006;28;20241;-80
2024/01/02 04:47:20;;;;;;;36.73;20.90;;;7.00;99.90;;;;;;5100172;28;20217;-79
2024/01/02 04:49:48;;;;;;;35.27;19.27;;;6.90;99.90;;;;;;5101614;28;20578;-81
2024/01/02 04:52:26;;;;;;;35.37;20.17;;;6.90;99.90;;;;;;5092831;28;20193;-78
2024/01/02 04:54:54;;;;;;;33.87;19.60;;;7.00;99.90;;;;;;5099222;28;20193;-80
2024/01/02 04:57:21;;;;;;;33.77;19.33;;;6.90;99.90;;;;;;5088996;28;20241;-81
2024/01/02 04:59:49;;;;;;;32.43;19.73;;;6.90;99.90;;;;;;5096050;28;20573;-80
2024/01/02 05:02:22;;;;;;;31.43;18.70;;;6.90;99.90;;;;;;5077883;28;20557;-81
2024/01/02 05:04:51;;;;;;;30.90;18.10;;;6.90;99.90;;;;;;5090743;28;20227;-79
2024/01/02 05:07:18;;;;;;;33.03;18.03;;;6.90;99.90;;;;;;5089863;28;20188;-81
2024/01/02 05:09:45;;;;;;;34.00;18.87;;;6.90;99.90;;;;;;5066834;28;20224;-80
2024/01/02 05:12:13;;;;;;;32.40;18.00;;;6.90;99.90;;;;;;5091803;28;20204;-81
2024/01/02 05:14:40;;;;;;;30.43;16.40;;;6.90;99.90;;;;;;5091534;28;20196;-80
2024/01/02 05:17:08;;;;;;;29.87;15.43;;;6.90;99.90;;;;;;5104511;28;20197;-81
2024/01/02 05:19:36;;;;;;;27.90;16.20;;;6.90;99.90;;;;;;5092656;28;20277;-83
2024/01/02 05:22:03;;;;;;;28.70;17.77;;;6.80;99.90;;;;;;5089219;28;20277;-80
2024/01/02 05:24:31;;;;;;;36.30;18.63;;;6.80;99.90;;;;;;5097029;28;20283;-81
2024/01/02 05:26:58;;;;;;;30.00;17.33;;;6.80;99.90;;;;;;5098713;28;20276;-80
2024/01/02 05:29:25;;;;;;;29.20;16.43;;;6.80;99.90;;;;;;5100285;28;20629;-82
2024/01/02 05:31:53;;;;;;;24.93;15.17;;;6.80;99.90;;;;;;5107313;28;20198;-80
2024/01/02 05:34:20;;;;;;;29.33;16.50;;;6.80;99.90;;;;;;5101992;28;20198;-80
2024/01/02 05:36:47;;;;;;;25.77;15.83;;;6.80;99.90;;;;;;5089215;28;20210;-80
2024/01/02 05:39:20;;;;;;;26.70;15.83;;;6.70;99.90;;;;;;5084429;28;20205;-77
2024/01/02 05:42:50;;;;;;;24.63;15.23;;;6.70;99.90;;;;;;5085772;28;20189;-77
2024/01/02 05:45:56;;;;;;;30.47;17.13;;;6.70;99.90;;;;;;5033228;28;20209;-81
2024/01/02 05:48:23;;;;;;;28.03;16.17;;;6.70;99.90;;;;;;5093114;28;20583;-80
2024/01/02 05:50:51;;;;;;;29.83;16.50;;;6.70;99.90;;;;;;5095975;28;20232;-80
2024/01/02 05:53:18;;;;;;;32.13;16.87;;;6.60;99.90;;;;;;5093864;28;20224;-80
2024/01/02 05:55:46;;;;;;;27.80;16.07;;;6.60;99.90;;;;;;5092179;28;20653;-81
2024/01/02 05:58:13;;;;;;;30.87;17.03;;;6.60;99.90;;;;;;5093835;28;20205;-81
2024/01/02 06:00:40;;;;;;;36.13;17.07;;;6.60;99.90;;;;;;5085660;28;20215;-81
2024/01/02 06:03:07;;;;;;;31.90;16.63;;;6.60;99.90;;;;;;5100042;28;20232;-80
2024/01/02 06:05:34;;;;;;;40.17;17.03;;;6.60;99.90;;;;;;5100371;28;20607;-81
2024/01/02 06:08:01;;;;;;;29.80;18.60;;;6.60;99.90;;;;;;5067937;28;20660;-80
2024/01/02 06:10:29;;;;;;;39.40;16.63;;;6.60;99.90;;;;;;5106464;28;20214;-80
2024/01/02 06:12:56;;;;;;;28.20;15.90;;;6.60;99.90;;;;;;5097243;28;20193;-80
2024/01/02 06:15:23;;;;;;;25.70;15.53;;;6.60;99.90;;;;;;5095152;28;20716;-79
2024/01/02 06:17:52;;;;;;;24.67;16.00;;;6.50;99.90;;;;;;5086474;28;20250;-79
2024/01/02 06:20:20;;;;;;;25.83;15.03;;;6.50;99.90;;;;;;5075485;28;20197;-79
2024/01/02 06:22:47;;;;;;;27.80;15.93;;;6.50;99.90;;;;;;5092315;28;20200;-80
2024/01/02 06:25:14;;;;;;;32.10;15.17;;;6.50;99.90;;;;;;5083572;28;20216;-81
2024/01/02 06:27:41;;;;;;;26.43;15.27;;;6.50;99.90;;;;;;5083301;28;20212;-82
2024/01/02 06:30:09;;;;;;;39.43;16.43;;;6.50;99.90;;;;;;5082322;28;20302;-80
2024/01/02 06:32:36;;;;;;;26.70;16.03;;;6.50;99.90;;;;;;5097679;28;20257;-81
2024/01/02 06:35:03;;;;;;;34.60;15.83;;;6.50;99.90;;;;;;5089177;28;20575;-80
2024/01/02 06:37:30;;;;;;;27.30;14.77;;;6.50;99.90;;;;;;5090361;28;20200;-81
2024/01/02 06:39:58;;;;;;;30.83;17.60;;;6.50;99.90;;;;;;5103308;28;20203;-80
2024/01/02 06:42:25;;;;;;;35.23;16.60;;;6.50;99.90;;;;;;5085144;28;20209;-80
2024/01/02 06:44:52;;;;;;;31.60;16.00;;;6.50;99.90;;;;;;5093918;28;20680;-79
2024/01/02 06:47:19;;;;;;;29.20;15.17;;;6.50;99.90;;;;;;5085827;28;20280;-81
2024/01/02 06:49:46;;;;;;;34.10;16.20;;;6.50;99.90;;;;;;5090055;28;20213;-81
2024/01/02 06:52:13;;;;;;;40.47;15.83;;;6.40;99.90;;;;;;5090177;28;20205;-81
2024/01/02 06:54:40;;;;;;;32.13;17.57;;;6.40;99.90;;;;;;5091320;28;20577;-79
2024/01/02 06:57:08;;;;;;;32.53;16.87;;;6.40;99.90;;;;;;5083546;28;20254;-80
2024/01/02 06:59:36;;;;;;;31.40;16.90;;;6.30;99.90;;;;;;5095958;28;20214;-80
2024/01/02 07:02:04;;;;;;;27.07;15.73;;;6.30;99.90;;;;;;5096895;28;20214;-82
2024/01/02 07:04:31;;;;;;;25.70;16.83;;;6.30;99.90;;;;;;5091485;28;20207;-80
2024/01/02 07:06:58;;;;;;;27.47;15.40;;;6.30;99.90;;;;;;5107029;28;20193;-81
2024/01/02 07:09:25;;;;;;;24.47;14.13;;;6.30;99.90;;;;;;5071459;28;20205;-79
2024/01/02 07:11:52;;;;;;;20.63;13.17;;;6.30;99.90;;;;;;5109314;28;20566;-81
2024/01/02 07:14:19;;;;;;;21.80;12.97;;;6.30;99.90;;;;;;5103210;28;20197;-80
2024/01/02 07:16:46;;;;;;;20.33;13.73;;;6.30;99.90;;;;;;5083593;28;20654;-80
2024/01/02 07:19:13;;;;;;;22.57;13.13;;;6.30;99.90;;;;;;5089996;28;20211;-81
2024/01/02 07:21:41;;;;;;;24.47;12.87;;;6.30;99.90;;;;;;5103826;28;20219;-81
2024/01/02 07:24:08;;;;;;;20.17;13.03;;;6.30;99.90;;;;;;5099676;28;20203;-78
2024/01/02 07:26:35;;;;;;;19.87;12.93;;;6.30;99.90;;;;;;5099600;28;20195;-80
2024/01/02 07:29:03;;;;;;;26.67;14.97;;;6.20;99.90;;;;;;5071353;28;20219;-80
2024/01/02 07:31:32;;;;;;;24.57;14.10;;;6.20;99.90;;;;;;5083667;28;20258;-79
2024/01/02 07:33:59;;;;;;;23.47;15.40;;;6.10;99.90;;;;;;5100371;28;20276;-80
2024/01/02 07:36:27;;;;;;;23.93;14.50;;;6.10;99.90;;;;;;5083970;28;20569;-80
2024/01/02 07:38:55;;;;;;;24.67;14.50;;;6.10;99.90;;;;;;5102893;28;20224;-82
2024/01/02 07:41:22;;;;;;;29.07;15.63;;;6.10;99.90;;;;;;5105713;28;20218;-80
2024/01/02 07:43:49;;;;;;;24.63;14.23;;;6.20;99.90;;;;;;5069820;28;20327;-81
2024/01/02 07:46:16;;;;;;;21.13;12.87;;;6.20;99.90;;;;;;5085329;28;20246;-81
2024/01/02 07:48:44;;;;;;;21.57;12.77;;;6.20;99.90;;;;;;5110913;28;20644;-81
2024/01/02 07:51:11;;;;;;;22.97;14.33;;;6.20;99.90;;;;;;5099082;28;20311;-81
2024/01/02 07:53:38;;;;;;;27.30;14.77;;;6.30;99.90;;;;;;5085150;28;20196;-80
2024/01/02 07:56:06;;;;;;;22.73;14.43;;;6.30;99.90;;;;;;5086530;28;20224;-80
2024/01/02 07:58:33;;;;;;;21.57;14.43;;;6.30;99.90;;;;;;5087692;28;20200;-79
2024/01/02 08:01:00;;;;;;;23.53;14.70;;;6.30;99.90;;;;;;5089168;28;20309;-80
2024/01/02 08:03:27;;;;;;;24.97;15.20;;;6.40;99.90;;;;;;5081113;28;20216;-80
2024/01/02 08:05:54;;;;;;;24.07;14.10;;;6.40;99.90;;;;;;5096834;28;20229;-81
2024/01/02 08:08:24;;;;;;;23.53;14.80;;;6.40;99.90;;;;;;5085713;28;20220;-81
2024/01/02 08:13:26;;;;;;;20.10;13.17;;;6.50;99.90;;;;;;4910548;27;4865763;-62
2024/01/02 08:15:54;;;;;;;21.43;13.60;;;6.50;99.90;;;;;;5068733;28;20227;-62
2024/01/02 08:18:50;;;;;;;23.00;14.07;;;6.60;99.90;;;;;;5058264;28;20202;-62
2024/01/02 08:21:44;;;;;;;21.17;14.33;;;6.60;99.90;;;;;;5067770;28;20652;-62
2024/01/02 08:24:28;;;;;;;20.63;14.63;;;6.60;99.90;;;;;;5050328;28;20293;-62
2024/01/02 08:27:24;;;;;;;22.13;15.30;;;6.60;99.90;;;;;;5056770;28;20198;-62
2024/01/02 08:30:49;;;;;;;25.73;15.53;;;6.70;99.90;;;;;;5069467;28;20268;-62
2024/01/02 08:34:15;;;;;;;25.57;16.17;;;6.70;99.90;;;;;;5059237;28;20734;-62
2024/01/02 08:37:16;;;;;;;22.17;14.57;;;6.70;99.90;;;;;;5089828;28;20261;-62
2024/01/02 08:41:07;;;;;;;24.97;15.53;;;6.80;99.90;;;;;;5074835;28;20198;-62
2024/01/02 08:44:22;;;;;;;24.23;16.10;;;6.80;99.90;;;;;;5070811;28;20201;-62
2024/01/02 08:47:36;;;;;;;25.63;15.80;;;6.90;99.90;;;;;;5058166;28;20617;-62
2024/01/02 08:50:48;;;;;;;24.27;15.93;;;6.90;99.90;;;;;;5057710;28;20645;-62
2024/01/02 08:53:54;;;;;;;25.13;16.17;;;6.90;99.90;;;;;;5062781;28;20289;-62
2024/01/02 08:57:12;;;;;;;24.40;15.63;;;6.90;99.90;;;;;;5074852;28;22110;-63
2024/01/02 09:04:43;;;;;;;29.13;15.07;;;7.00;99.90;;;;;;5063854;28;20234;-62
2024/01/02 09:08:08;;;;;;;25.63;15.70;;;7.00;99.90;;;;;;5074664;28;20236;-62
2024/01/02 09:10:56;;;;;;;25.10;14.40;;;7.00;99.90;;;;;;5054832;28;20206;-62
2024/01/02 09:13:25;;;;;;;27.23;16.47;;;7.00;99.90;;;;;;5069336;28;20548;-62
2024/01/02 09:15:54;;;;;;;25.33;16.23;;;7.00;99.90;;;;;;5084675;28;20548;-63
2024/01/02 09:18:23;;;;;;;24.83;16.87;;;7.00;99.90;;;;;;5084361;28;20293;-62
2024/01/02 09:20:52;;;;;;;34.33;17.73;;;7.00;99.90;;;;;;5046993;28;20289;-63
2024/01/02 09:23:21;;;;;;;27.00;17.67;;;7.00;99.90;;;;;;5057685;28;20200;-62
2024/01/02 09:25:53;;;;;;;28.23;18.13;;;7.10;99.90;;;;;;5055533;28;20198;-62
2024/01/02 09:28:22;;;;;;;30.17;18.40;;;7.10;99.90;;;;;;5054048;28;20232;-62
2024/01/02 09:30:51;;;;;;;29.47;19.07;;;7.10;99.90;;;;;;5055941;28;20212;-63
2024/01/02 09:33:20;;;;;;;25.27;17.10;;;7.10;99.90;;;;;;5054612;28;20227;-62
2024/01/02 09:35:49;;;;;;;29.33;17.40;;;7.10;99.90;;;;;;5052831;28;20221;-62
2024/01/02 09:38:18;;;;;;;30.93;18.97;;;7.20;99.90;;;;;;5055396;28;20299;-61
2024/01/02 09:40:54;;;;;;;28.10;17.67;;;7.20;99.90;;;;;;5061965;28;20195;-62
2024/01/02 09:43:46;;;;;;;28.33;17.53;;;7.30;99.90;;;;;;5052260;28;20203;-62
2024/01/02 09:46:36;;;;;;;36.87;19.47;;;7.30;99.90;;;;;;5040410;28;20561;-62
2024/01/02 09:49:10;;;;;;;31.20;17.47;;;7.30;99.90;;;;;;5050825;28;20546;-62
2024/01/02 09:52:04;;;;;;;119.17;61.10;;;7.30;99.90;;;;;;5053463;28;20592;-62
2024/01/02 09:55:09;;;;;;;64.90;35.80;;;7.30;99.90;;;;;;5056214;28;20305;-62
2024/01/02 09:58:01;;;;;;;33.30;20.60;;;7.20;99.90;;;;;;5036449;28;20284;-63
2024/01/02 10:01:02;;;;;;;31.53;17.93;;;7.20;99.90;;;;;;5049903;28;20199;-62
2024/01/02 10:03:46;;;;;;;28.00;17.93;;;7.20;99.90;;;;;;5034170;28;20538;-62
2024/01/02 10:06:36;;;;;;;27.87;17.90;;;7.20;99.90;;;;;;5050590;28;20203;-62
2024/01/02 10:09:09;;;;;;;51.07;30.83;;;7.30;99.90;;;;;;5053368;28;20603;-62
2024/01/02 10:11:56;;;;;;;41.37;26.63;;;7.30;99.90;;;;;;5058870;28;20574;-62
2024/01/02 10:14:55;;;;;;;26.70;16.33;;;7.30;99.90;;;;;;5071298;28;20583;-62
2024/01/02 10:17:45;;;;;;;23.47;15.27;;;7.30;99.90;;;;;;5077516;28;20211;-62
2024/01/02 10:20:41;;;;;;;22.30;15.03;;;7.30;99.90;;;;;;5062286;28;20204;-63
2024/01/02 10:23:22;;;;;;;21.53;15.33;;;7.40;99.90;;;;;;5074378;28;20301;-64
2024/01/02 10:25:54;;;;;;;25.23;16.07;;;7.40;99.90;;;;;;5071030;28;20221;-63
2024/01/02 10:28:30;;;;;;;60.87;39.50;;;7.50;99.90;;;;;;5047321;28;20329;-62
2024/01/02 10:31:06;;;;;;;46.53;32.43;;;7.50;99.90;;;;;;5056737;28;20217;-62
2024/01/02 10:33:42;;;;;;;19.77;12.67;;;7.50;99.90;;;;;;5056502;28;20221;-62
2024/01/02 10:36:12;;;;;;;17.90;12.50;;;7.50;99.90;;;;;;5050444;28;20299;-63
2024/01/02 10:39:01;;;;;;;19.93;12.73;;;7.40;99.90;;;;;;5039370;28;20293;-62
2024/01/02 10:41:44;;;;;;;22.70;13.37;;;7.40;99.90;;;;;;5055090;28;20197;-62
2024/01/02 10:44:35;;;;;;;19.87;13.40;;;7.40;99.90;;;;;;5051813;28;20191;-63
2024/01/02 10:47:25;;;;;;;21.40;14.87;;;7.50;99.90;;;;;;5054713;28;20299;-62
2024/01/02 10:49:59;;;;;;;20.50;13.17;;;7.60;99.90;;;;;;5071358;28;20286;-63
2024/01/02 10:52:37;;;;;;;21.87;14.40;;;7.60;99.90;;;;;;5069490;28;20535;-62
2024/01/02 10:55:23;;;;;;;18.50;13.07;;;7.70;99.90;;;;;;5076498;28;20190;-62
2024/01/02 10:58:06;;;;;;;20.17;13.70;;;7.70;99.90;;;;;;5054851;28;20264;-62
2024/01/02 11:00:49;;;;;;;24.23;14.93;;;7.80;99.90;;;;;;5071259;28;20335;-62
2024/01/02 11:03:19;;;;;;;22.80;14.93;;;7.80;99.90;;;;;;5072878;28;20580;-62
2024/01/02 11:05:57;;;;;;;21.77;14.30;;;7.80;99.90;;;;;;5053052;28;20511;-61
2024/01/02 11:08:39;;;;;;;26.33;16.70;;;7.80;99.90;;;;;;5052924;28;20344;-62
2024/01/02 11:11:10;;;;;;;23.37;14.77;;;7.90;99.90;;;;;;5056743;28;20296;-63
2024/01/02 11:13:42;;;;;;;27.47;18.47;;;7.90;99.90;;;;;;5070576;28;20607;-62
2024/01/02 11:16:17;;;;;;;23.60;15.83;;;7.90;99.90;;;;;;5037503;28;20207;-63
2024/01/02 11:18:55;;;;;;;24.27;14.03;;;7.80;99.60;;;;;;5054700;28;20530;-62
2024/01/02 11:21:55;;;;;;;20.87;14.37;;;7.80;99.70;;;;;;5054762;28;20233;-62
2024/01/02 11:24:28;;;;;;;24.10;14.27;;;7.90;99.80;;;;;;5053661;28;20276;-62
2024/01/02 11:27:03;;;;;;;25.03;15.30;;;7.90;99.90;;;;;;5039008;28;20194;-62
2024/01/02 11:29:41;;;;;;;27.47;17.67;;;7.90;99.90;;;;;;5050706;28;20542;-62
2024/01/02 11:32:16;;;;;;;23.33;15.00;;;7.90;99.70;;;;;;5072625;28;20549;-62
2024/01/02 11:34:59;;;;;;;28.13;17.83;;;8.00;99.70;;;;;;5055041;28;20201;-62
2024/01/02 11:37:38;;;;;;;24.03;15.70;;;8.00;99.40;;;;;;5056192;28;20234;-63
2024/01/02 11:40:35;;;;;;;22.00;14.80;;;7.90;99.30;;;;;;5053607;28;20538;-62
2024/01/02 11:43:06;;;;;;;20.43;14.67;;;7.90;99.30;;;;;;5074829;28;20496;-62
2024/01/02 11:45:38;;;;;;;22.73;13.30;;;8.00;99.40;;;;;;5078539;28;20198;-62
2024/01/02 11:48:23;;;;;;;22.17;13.17;;;8.00;99.40;;;;;;5077953;28;20592;-62
2024/01/02 11:50:55;;;;;;;24.13;15.27;;;8.00;99.20;;;;;;5070501;28;20210;-62
2024/01/02 11:53:46;;;;;;;25.57;18.70;;;8.00;99.40;;;;;;5071964;28;20548;-62
2024/01/02 11:56:18;;;;;;;28.30;16.97;;;8.00;99.20;;;;;;5072343;28;20226;-62
2024/01/02 11:59:04;;;;;;;25.23;15.00;;;7.90;99.20;;;;;;5044977;28;20185;-62
2024/01/02 12:01:42;;;;;;;24.37;15.03;;;8.00;99.20;;;;;;5074272;28;20616;-63
2024/01/02 12:04:29;;;;;;;22.27;14.57;;;8.00;99.20;;;;;;5070400;28;20209;-62
2024/01/02 12:07:10;;;;;;;22.87;13.37;;;8.00;99.30;;;;;;5052893;28;20563;-63
2024/01/02 12:09:42;;;;;;;20.13;12.80;;;8.00;99.30;;;;;;5050524;28;20193;-63
2024/01/02 12:12:47;;;;;;;19.87;13.43;;;8.10;99.40;;;;;;5069124;28;20593;-63
2024/01/02 12:15:40;;;;;;;22.83;13.37;;;8.10;99.30;;;;;;5035164;28;20261;-63
2024/01/02 12:18:11;;;;;;;23.57;13.77;;;8.20;99.30;;;;;;5070187;28;20579;-62
2024/01/02 12:20:57;;;;;;;19.20;12.23;;;8.20;99.30;;;;;;5069766;28;20340;-63
2024/01/02 12:23:26;;;;;;;19.80;12.90;;;8.20;99.20;;;;;;5068429;28;20195;-63
2024/01/02 12:26:00;;;;;;;18.40;12.80;;;8.30;99.20;;;;;;5073167;28;20241;-63
2024/01/02 12:28:31;;;;;;;21.17;12.90;;;8.30;99.10;;;;;;5052782;28;20273;-63
2024/01/02 12:31:21;;;;;;;18.93;12.47;;;8.40;99.00;;;;;;5068839;28;20230;-62
2024/01/02 12:34:28;;;;;;;24.03;15.63;;;8.40;98.90;;;;;;5070852;28;20296;-62
2024/01/02 12:37:14;;;;;;;20.97;13.43;;;8.40;98.80;;;;;;5070475;28;20197;-62
2024/01/02 12:39:48;;;;;;;20.03;13.57;;;8.30;98.60;;;;;;5051271;28;20199;-62
2024/01/02 12:42:21;;;;;;;18.93;12.47;;;8.30;98.40;;;;;;5050467;28;20600;-62
2024/01/02 12:44:55;;;;;;;17.47;12.57;;;8.30;98.30;;;;;;5052766;28;21005;-63
2024/01/02 12:47:27;;;;;;;20.30;13.77;;;8.20;98.30;;;;;;5069932;28;20190;-63
2024/01/02 12:50:06;;;;;;;19.87;12.70;;;8.20;98.30;;;;;;5051795;28;20595;-62
2024/01/02 12:52:52;;;;;;;21.90;13.03;;;8.20;98.40;;;;;;5068667;28;20218;-63
2024/01/02 12:55:21;;;;;;;18.47;12.93;;;8.20;98.50;;;;;;5070705;28;20591;-62
2024/01/02 12:57:53;;;;;;;20.03;12.60;;;8.20;98.50;;;;;;5065588;28;20846;-62
2024/01/02 13:00:21;;;;;;;20.57;13.30;;;8.20;98.50;;;;;;5070016;28;20615;-63
2024/01/02 13:02:51;;;;;;;25.27;13.70;;;8.20;98.50;;;;;;5040940;28;20198;-62
2024/01/02 13:05:19;;;;;;;23.97;14.30;;;8.20;98.60;;;;;;5075285;28;20552;-62
2024/01/02 13:07:48;;;;;;;26.93;17.37;;;8.20;98.40;;;;;;5076113;28;20842;-62
2024/01/02 13:10:23;;;;;;;23.17;15.07;;;8.20;98.40;;;;;;5040832;28;20557;-62
2024/01/02 13:12:53;;;;;;;19.43;13.23;;;8.20;98.50;;;;;;5044625;28;20258;-62
2024/01/02 13:15:22;;;;;;;22.73;14.83;;;8.20;98.40;;;;;;5064232;28;20198;-62